Terminal Aerodrome Forecast
Issued by NWS

Home | Current Version | Previous Version | Graphics & Text | Print | Product List | Glossary On
Versions: 1 2 3 4 5 6 7 8 9 10 11 12 13 14 15 16
459
FTUS43 KFGF 271136
TAFBJI
TAF
KBJI 271136Z 2712/2812 02008KT P6SM OVC035
     FM271400 36009KT P6SM OVC030
     FM271800 33011KT P6SM OVC030
     FM272300 32010KT P6SM OVC035=

USA.gov is the U.S. government's official web portal to all federal, state and local government web resources and services.